createdAt,value
2022-11-10T00:02:02.098Z,12.98
2022-11-10T00:05:22.048Z,14.90
2022-11-10T00:08:42.231Z,15.17
2022-11-10T00:12:02.302Z,14.85
2022-11-10T00:15:40.855Z,14.52
2022-11-10T00:19:01.085Z,14.60
2022-11-10T00:22:25.848Z,15.50
2022-11-10T00:25:46.001Z,15.07
2022-11-10T00:29:05.960Z,15.98
2022-11-10T00:32:26.323Z,17.77
2022-11-10T00:35:46.630Z,17.52
2022-11-10T00:39:07.106Z,17.20
2022-11-10T00:42:27.423Z,17.20
2022-11-10T00:45:47.415Z,16.23
2022-11-10T00:49:07.634Z,19.08
2022-11-10T00:52:27.927Z,16.60
2022-11-10T00:55:49.028Z,19.13
2022-11-10T00:59:09.244Z,17.17
2022-11-10T01:02:29.403Z,16.27
2022-11-10T01:05:49.279Z,19.67
2022-11-10T01:09:09.326Z,17.27
2022-11-10T01:12:30.918Z,18.17
2022-11-10T01:15:51.203Z,18.38
2022-11-10T01:19:11.276Z,17.48
2022-11-10T01:22:31.462Z,16.02
2022-11-10T01:25:52.475Z,19.23
2022-11-10T01:29:12.768Z,17.10
2022-11-10T01:32:32.877Z,16.15
2022-11-10T01:35:52.979Z,13.57
2022-11-10T01:39:13.352Z,11.13
2022-11-10T01:42:49.192Z,8.93
2022-11-10T01:46:13.856Z,8.57
2022-11-10T01:49:35.970Z,7.45
2022-11-10T01:52:58.795Z,7.33
2022-11-10T01:56:20.605Z,5.28
2022-11-10T01:59:45.755Z,6.55
2022-11-10T02:03:18.784Z,6.77
2022-11-10T02:06:42.049Z,5.72
2022-11-10T02:10:03.611Z,8.23
2022-11-10T02:13:23.802Z,7.55
2022-11-10T02:16:44.448Z,7.57
2022-11-10T02:20:09.979Z,6.38
2022-11-10T02:23:30.088Z,6.93
2022-11-10T02:26:55.840Z,8.53
2022-11-10T02:30:16.725Z,8.52
2022-11-10T02:33:37.286Z,7.07
2022-11-10T02:36:57.243Z,7.80
2022-11-10T02:40:17.413Z,7.63
2022-11-10T02:43:39.030Z,7.03
2022-11-10T02:46:59.108Z,7.97
2022-11-10T02:50:19.353Z,6.53
2022-11-10T02:53:39.490Z,6.05
2022-11-10T02:57:02.659Z,6.00
2022-11-10T03:00:23.177Z,6.65
2022-11-10T03:03:43.272Z,6.95
2022-11-10T03:07:03.630Z,5.55
2022-11-10T03:10:24.828Z,7.50
2022-11-10T03:14:00.930Z,7.63
2022-11-10T03:17:22.187Z,6.70
2022-11-10T03:20:42.607Z,9.80
2022-11-10T03:24:02.750Z,8.70
2022-11-10T03:27:23.096Z,7.25
2022-11-10T03:30:43.935Z,6.40
2022-11-10T03:34:03.890Z,5.57
2022-11-10T03:37:24.605Z,8.05
2022-11-10T03:41:12.498Z,7.22
2022-11-10T03:44:25.190Z,4.78
2022-11-10T03:47:49.092Z,6.33
2022-11-10T03:51:09.246Z,5.55
2022-11-10T03:54:29.477Z,6.13
2022-11-10T03:57:49.732Z,6.30
2022-11-10T04:01:09.780Z,5.82
2022-11-10T04:04:48.301Z,9.10
2022-11-10T04:08:33.626Z,7.43
2022-11-10T04:12:12.608Z,6.32
2022-11-10T04:15:41.966Z,10.32
2022-11-10T04:19:01.896Z,6.35
2022-11-10T04:22:42.197Z,6.83
2022-11-10T04:26:26.308Z,7.00
2022-11-10T04:29:46.476Z,6.85
2022-11-10T04:33:06.712Z,6.50
2022-11-10T04:36:30.001Z,7.72
2022-11-10T04:39:50.252Z,5.60
2022-11-10T04:43:10.432Z,6.22
2022-11-10T04:46:36.983Z,5.57
2022-11-10T04:49:57.440Z,8.60
2022-11-10T04:53:18.109Z,6.80
2022-11-10T04:56:40.163Z,8.07
2022-11-10T05:00:00.264Z,8.55
2022-11-10T05:03:20.699Z,8.45
2022-11-10T05:06:41.234Z,7.93
2022-11-10T05:10:01.462Z,7.38
2022-11-10T05:13:21.824Z,9.13
2022-11-10T05:16:42.194Z,9.40
2022-11-10T05:20:02.566Z,7.10
2022-11-10T05:23:38.193Z,7.70
2022-11-10T05:26:59.445Z,7.03
2022-11-10T05:30:19.627Z,8.70
2022-11-10T05:33:39.848Z,7.45
2022-11-10T05:37:00.296Z,7.05
2022-11-10T05:40:20.472Z,8.17
2022-11-10T05:43:40.480Z,8.70
2022-11-10T05:47:00.783Z,9.32
2022-11-10T05:50:22.190Z,8.38
2022-11-10T05:53:42.321Z,8.05
2022-11-10T05:57:02.633Z,7.78
2022-11-10T06:00:25.463Z,8.30
2022-11-10T06:03:45.769Z,9.03
2022-11-10T06:07:08.038Z,18.27
2022-11-10T06:10:28.747Z,7.68
2022-11-10T06:13:48.967Z,11.20
2022-11-10T06:17:09.132Z,10.10
2022-11-10T06:20:29.651Z,10.60
2022-11-10T06:23:49.853Z,11.48
2022-11-10T06:27:09.924Z,11.15
2022-11-10T06:30:32.566Z,9.50
2022-11-10T06:33:52.569Z,9.07
2022-11-10T06:37:12.749Z,11.23
2022-11-10T06:40:33.099Z,7.75
2022-11-10T06:43:53.134Z,9.82
2022-11-10T06:47:13.322Z,8.43
2022-11-10T06:50:33.640Z,7.68
2022-11-10T06:53:53.822Z,12.48
2022-11-10T06:57:13.926Z,23.05
2022-11-10T07:00:34.219Z,27.45
2022-11-10T07:04:18.283Z,26.90
2022-11-10T07:07:34.378Z,18.27
2022-11-10T07:10:55.392Z,15.87
2022-11-10T07:14:15.472Z,17.25
2022-11-10T07:17:42.012Z,14.43
2022-11-10T07:21:03.823Z,15.53
2022-11-10T07:24:24.056Z,15.68
2022-11-10T07:27:43.889Z,16.30
2022-11-10T07:31:04.103Z,15.27
2022-11-10T07:34:24.403Z,16.52
2022-11-10T07:37:44.488Z,12.82
2022-11-10T07:41:04.716Z,13.55
2022-11-10T07:44:26.129Z,13.00
2022-11-10T07:47:46.063Z,13.82
2022-11-10T07:51:06.371Z,13.45
2022-11-10T07:54:26.417Z,14.67
2022-11-10T07:57:46.421Z,13.57
2022-11-10T08:01:06.378Z,11.48
2022-11-10T08:04:26.527Z,12.45
2022-11-10T08:07:46.630Z,13.50
2022-11-10T08:11:06.613Z,11.63
2022-11-10T08:14:26.994Z,12.82
2022-11-10T08:17:47.352Z,15.60
2022-11-10T08:21:07.511Z,10.63
2022-11-10T08:24:27.510Z,12.13
2022-11-10T08:27:47.633Z,12.17
2022-11-10T08:31:07.625Z,11.10
2022-11-10T08:34:27.986Z,11.73
2022-11-10T08:37:47.953Z,13.25
2022-11-10T08:41:08.380Z,12.57
2022-11-10T08:44:28.388Z,12.48
2022-11-10T08:47:56.551Z,11.13
2022-11-10T08:51:16.822Z,12.97
2022-11-10T08:54:36.752Z,9.85
2022-11-10T08:58:01.353Z,7.68
2022-11-10T09:01:21.508Z,10.33
2022-11-10T09:04:41.700Z,7.32
2022-11-10T09:08:02.086Z,7.00
2022-11-10T09:11:22.368Z,6.82
2022-11-10T09:14:42.355Z,9.88
2022-11-10T09:18:04.636Z,8.27
2022-11-10T09:21:24.665Z,7.30
2022-11-10T09:24:44.724Z,6.73
2022-11-10T09:28:05.192Z,7.82
2022-11-10T09:31:25.535Z,4.90
2022-11-10T09:34:50.288Z,7.57
2022-11-10T09:38:12.941Z,6.90
2022-11-10T09:41:33.393Z,5.72
2022-11-10T09:45:03.151Z,5.82
2022-11-10T09:48:32.185Z,7.22
2022-11-10T09:51:53.721Z,6.30
2022-11-10T09:55:38.836Z,5.97
2022-11-10T09:58:59.963Z,6.27
2022-11-10T10:02:31.156Z,7.15
2022-11-10T10:06:02.613Z,5.50
2022-11-10T10:09:28.302Z,5.93
2022-11-10T10:12:48.365Z,6.60
2022-11-10T10:16:27.315Z,6.57
2022-11-10T10:19:58.037Z,6.63
2022-11-10T10:24:02.115Z,5.87
2022-11-10T10:27:20.439Z,8.25
2022-11-10T10:30:41.628Z,7.15
2022-11-10T10:34:02.204Z,7.47
2022-11-10T10:37:53.293Z,7.82
2022-11-10T10:41:24.189Z,6.57
2022-11-10T10:45:31.077Z,5.05
2022-11-10T10:49:27.972Z,9.60
2022-11-10T10:53:16.993Z,7.22
2022-11-10T10:56:38.127Z,6.82
2022-11-10T11:00:23.765Z,6.97
2022-11-10T11:03:52.108Z,6.78
2022-11-10T11:07:24.545Z,8.02
2022-11-10T11:10:46.365Z,5.95
2022-11-10T11:14:23.559Z,5.63
2022-11-10T11:17:59.455Z,6.63
2022-11-10T11:21:35.006Z,5.10
2022-11-10T11:25:13.495Z,6.27
2022-11-10T11:29:17.960Z,6.35
2022-11-10T11:33:21.372Z,6.78
2022-11-10T11:37:19.711Z,6.00
2022-11-10T11:41:32.420Z,5.53
2022-11-10T11:45:22.185Z,7.20
2022-11-10T11:48:48.946Z,7.43
2022-11-10T11:52:53.653Z,5.22
2022-11-10T11:56:35.490Z,5.93
2022-11-10T12:00:15.657Z,4.93
2022-11-10T12:04:03.743Z,7.18
2022-11-10T12:07:54.610Z,5.82
2022-11-10T12:11:49.859Z,5.80
2022-11-10T12:15:48.177Z,8.57
2022-11-10T12:19:46.856Z,8.07
2022-11-10T12:23:34.503Z,4.85
2022-11-10T12:27:11.795Z,6.28
2022-11-10T12:30:34.279Z,7.50
2022-11-10T12:34:05.189Z,7.45
2022-11-10T12:37:32.432Z,8.50
2022-11-10T12:41:02.808Z,6.53
2022-11-10T12:44:31.158Z,7.70
2022-11-10T12:47:53.098Z,4.97
2022-11-10T12:51:21.663Z,7.40
2022-11-10T12:54:46.385Z,5.18
2022-11-10T12:58:11.184Z,4.88
2022-11-10T13:01:31.797Z,6.85
2022-11-10T13:05:09.490Z,5.95
2022-11-10T13:08:42.017Z,7.75
2022-11-10T13:12:10.741Z,5.93
2022-11-10T13:15:47.296Z,6.57
2022-11-10T13:19:34.500Z,7.15
2022-11-10T13:22:54.488Z,7.78
2022-11-10T13:26:39.626Z,4.93
2022-11-10T13:30:00.268Z,4.57
2022-11-10T13:33:23.350Z,5.43
2022-11-10T13:36:45.968Z,6.95
2022-11-10T13:40:18.350Z,5.15
2022-11-10T13:43:48.453Z,5.18
2022-11-10T13:47:08.745Z,4.93
2022-11-10T13:50:38.887Z,7.93
2022-11-10T13:54:07.307Z,5.93
2022-11-10T13:57:38.940Z,5.93
2022-11-10T14:01:17.399Z,6.50
2022-11-10T14:04:43.868Z,6.55
2022-11-10T14:08:17.607Z,7.27
2022-11-10T14:11:49.488Z,5.25
2022-11-10T14:15:18.559Z,5.68
2022-11-10T14:18:41.428Z,6.65
2022-11-10T14:22:13.090Z,5.77
2022-11-10T14:25:40.884Z,6.68
2022-11-10T14:29:29.214Z,6.25
2022-11-10T14:33:12.764Z,8.88
2022-11-10T14:36:33.049Z,6.20
2022-11-10T14:39:57.009Z,5.10
2022-11-10T14:43:31.552Z,5.93
2022-11-10T14:46:52.543Z,8.13
2022-11-10T14:50:21.013Z,6.38
2022-11-10T14:53:47.753Z,7.13
2022-11-10T14:57:07.967Z,7.63
2022-11-10T15:00:28.737Z,6.40
2022-11-10T15:03:48.964Z,10.60
2022-11-10T15:07:09.556Z,5.03
2022-11-10T15:10:39.373Z,6.43
2022-11-10T15:13:59.603Z,7.00
2022-11-10T15:17:20.365Z,5.90
2022-11-10T15:20:41.100Z,7.97
2022-11-10T15:24:05.749Z,7.47
2022-11-10T15:27:29.024Z,6.43
2022-11-10T15:30:59.168Z,6.63
2022-11-10T15:34:44.263Z,6.67
2022-11-10T15:38:06.973Z,8.95
2022-11-10T15:41:27.777Z,9.52
2022-11-10T15:44:48.647Z,8.43
2022-11-10T15:48:16.844Z,10.00
2022-11-10T15:51:36.926Z,9.15
2022-11-10T15:54:57.084Z,8.52
2022-11-10T15:58:19.282Z,8.33
2022-11-10T16:01:39.507Z,9.52
2022-11-10T16:05:00.247Z,8.80
2022-11-10T16:08:23.482Z,9.73
2022-11-10T16:11:44.768Z,9.10
2022-11-10T16:15:06.328Z,9.25
2022-11-10T16:18:28.979Z,11.18
2022-11-10T16:21:49.112Z,9.63
2022-11-10T16:25:18.308Z,8.38
2022-11-10T16:28:44.010Z,8.70
2022-11-10T16:32:04.191Z,7.22
2022-11-10T16:35:24.728Z,9.23
2022-11-10T16:38:44.983Z,8.32
2022-11-10T16:42:05.342Z,10.35
2022-11-10T16:45:30.099Z,7.80
2022-11-10T16:48:53.221Z,7.72
2022-11-10T16:52:18.840Z,8.00
2022-11-10T16:55:38.837Z,8.43
2022-11-10T16:58:58.940Z,9.68
2022-11-10T17:02:33.678Z,7.85
2022-11-10T17:05:53.994Z,10.40
2022-11-10T17:09:17.746Z,9.45
2022-11-10T17:12:38.095Z,10.93
2022-11-10T17:16:07.696Z,11.27
2022-11-10T17:19:27.884Z,10.60
2022-11-10T17:22:49.725Z,13.30
2022-11-10T17:26:12.690Z,12.60
2022-11-10T17:29:33.216Z,13.17
2022-11-10T17:33:04.871Z,16.63
2022-11-10T17:36:25.683Z,21.75
2022-11-10T17:39:45.853Z,24.00
2022-11-10T17:43:06.391Z,26.17
2022-11-10T17:46:26.719Z,24.92
2022-11-10T17:49:47.106Z,58.88
2022-11-10T17:53:14.430Z,38.20
2022-11-10T17:56:34.412Z,26.67
2022-11-10T17:59:55.436Z,25.63
2022-11-10T18:03:17.503Z,20.33
2022-11-10T18:06:37.731Z,23.83
2022-11-10T18:09:57.877Z,24.38
2022-11-10T18:13:21.425Z,31.63
2022-11-10T18:16:41.884Z,26.60
2022-11-10T18:20:02.162Z,23.45
2022-11-10T18:23:22.419Z,24.58
2022-11-10T18:26:43.116Z,29.47
2022-11-10T18:30:05.120Z,30.63
2022-11-10T18:33:25.296Z,31.02
2022-11-10T18:36:45.536Z,27.60
2022-11-10T18:40:06.373Z,28.38
2022-11-10T18:43:26.614Z,28.83
2022-11-10T18:46:48.204Z,29.58
2022-11-10T18:50:09.077Z,27.90
2022-11-10T18:53:37.006Z,32.67
2022-11-10T18:56:58.495Z,24.52
2022-11-10T19:00:19.010Z,27.27
2022-11-10T19:03:39.273Z,24.38
2022-11-10T19:06:59.510Z,22.40
2022-11-10T19:10:19.747Z,22.67
2022-11-10T19:13:40.204Z,22.25
2022-11-10T19:17:00.642Z,21.45
2022-11-10T19:20:20.487Z,26.05
2022-11-10T19:23:41.071Z,30.80
2022-11-10T19:27:01.155Z,24.25
2022-11-10T19:30:21.092Z,29.88
2022-11-10T19:33:43.861Z,26.93
2022-11-10T19:37:05.723Z,31.05
2022-11-10T19:40:26.214Z,31.08
2022-11-10T19:43:47.722Z,28.40
2022-11-10T19:47:08.254Z,31.08
2022-11-10T19:50:28.462Z,27.77
2022-11-10T19:53:54.647Z,34.33
2022-11-10T19:57:14.740Z,30.92
2022-11-10T20:00:34.644Z,36.25
2022-11-10T20:03:54.640Z,37.70
2022-11-10T20:07:33.467Z,28.80
2022-11-10T20:10:54.233Z,37.97
2022-11-10T20:14:14.111Z,64.53
2022-11-10T20:17:34.248Z,54.63
2022-11-10T20:20:54.649Z,44.42
2022-11-10T20:24:14.955Z,45.60
2022-11-10T20:27:35.392Z,30.98
2022-11-10T20:30:57.551Z,28.00
2022-11-10T20:34:17.463Z,26.85
2022-11-10T20:37:37.767Z,27.58
2022-11-10T20:41:10.851Z,24.20
2022-11-10T20:44:31.426Z,25.23
2022-11-10T20:47:51.632Z,25.63
2022-11-10T20:51:14.739Z,33.83
2022-11-10T20:54:34.895Z,33.30
2022-11-10T20:57:54.766Z,37.05
2022-11-10T21:01:15.776Z,33.17
2022-11-10T21:04:40.320Z,33.92
2022-11-10T21:08:03.139Z,35.05
2022-11-10T21:11:42.184Z,31.35
2022-11-10T21:15:02.671Z,32.40
2022-11-10T21:18:28.902Z,30.77
2022-11-10T21:21:49.387Z,26.90
2022-11-10T21:25:09.641Z,30.93
2022-11-10T21:28:29.940Z,28.77
2022-11-10T21:31:49.829Z,30.17
2022-11-10T21:35:10.030Z,28.00
2022-11-10T21:38:30.064Z,26.92
2022-11-10T21:41:50.131Z,28.52
2022-11-10T21:45:10.942Z,28.35
2022-11-10T21:48:30.864Z,27.73
2022-11-10T21:51:52.609Z,26.23
2022-11-10T21:55:12.999Z,27.38
2022-11-10T21:58:34.117Z,30.10
2022-11-10T22:01:54.373Z,26.85
2022-11-10T22:05:14.992Z,28.00
2022-11-10T22:08:36.499Z,26.52
2022-11-10T22:12:15.093Z,23.27
2022-11-10T22:15:54.092Z,22.73
2022-11-10T22:19:14.725Z,21.58
2022-11-10T22:22:34.911Z,19.43
2022-11-10T22:25:55.188Z,19.52
2022-11-10T22:29:15.470Z,19.13
2022-11-10T22:32:35.536Z,28.00
2022-11-10T22:35:57.971Z,24.77
2022-11-10T22:39:18.962Z,20.13
2022-11-10T22:42:57.524Z,19.98
2022-11-10T22:46:17.684Z,18.60
2022-11-10T22:49:37.979Z,16.77
2022-11-10T22:52:58.012Z,17.98
2022-11-10T22:56:19.241Z,16.43
2022-11-10T22:59:39.494Z,15.18
2022-11-10T23:02:59.728Z,16.45
2022-11-10T23:06:20.644Z,14.10
2022-11-10T23:09:40.629Z,14.57
2022-11-10T23:13:00.743Z,14.13
2022-11-10T23:16:26.372Z,17.35
2022-11-10T23:19:46.586Z,16.20
2022-11-10T23:23:06.566Z,16.42
2022-11-10T23:26:33.850Z,13.85
2022-11-10T23:29:54.300Z,15.37
2022-11-10T23:33:14.544Z,15.65
2022-11-10T23:36:34.536Z,15.23
2022-11-10T23:39:54.447Z,15.00
2022-11-10T23:43:15.399Z,14.45
2022-11-10T23:46:35.616Z,15.55
2022-11-10T23:49:56.017Z,16.50
2022-11-10T23:53:16.837Z,13.65
2022-11-10T23:56:37.117Z,16.00
2022-11-10T23:59:57.301Z,16.33
